sensor_id;sensor_type;location;lat;lon;timestamp;temperature;humidity
29255;DHT22;16277;48.890;2.306;2022-10-31T00:13:28;19.60;99.90
29255;DHT22;16277;48.890;2.306;2022-10-31T00:28:32;19.70;99.90
29255;DHT22;16277;48.890;2.306;2022-10-31T00:43:37;19.50;99.90
29255;DHT22;16277;48.890;2.306;2022-10-31T00:58:41;19.40;99.90
29255;DHT22;16277;48.890;2.306;2022-10-31T01:13:46;19.50;99.90
29255;DHT22;16277;48.890;2.306;2022-10-31T01:28:51;19.40;99.90
29255;DHT22;16277;48.890;2.306;2022-10-31T01:43:58;19.40;99.90
29255;DHT22;16277;48.890;2.306;2022-10-31T01:59:05;19.40;99.90
29255;DHT22;16277;48.890;2.306;2022-10-31T02:14:12;19.60;99.90
29255;DHT22;16277;48.890;2.306;2022-10-31T02:29:40;19.50;99.90
29255;DHT22;16277;48.890;2.306;2022-10-31T02:44:51;19.40;99.90
29255;DHT22;16277;48.890;2.306;2022-10-31T02:59:58;19.50;99.90
29255;DHT22;16277;48.890;2.306;2022-10-31T03:15:12;19.50;99.90
29255;DHT22;16277;48.890;2.306;2022-10-31T03:30:18;19.40;99.90
29255;DHT22;16277;48.890;2.306;2022-10-31T03:45:32;19.30;99.90
29255;DHT22;16277;48.890;2.306;2022-10-31T04:00:41;19.40;99.90
29255;DHT22;16277;48.890;2.306;2022-10-31T04:15:48;19.30;99.90
29255;DHT22;16277;48.890;2.306;2022-10-31T04:30:54;19.40;99.90
29255;DHT22;16277;48.890;2.306;2022-10-31T04:45:58;19.40;99.90
29255;DHT22;16277;48.890;2.306;2022-10-31T05:01:03;19.30;99.90
29255;DHT22;16277;48.890;2.306;2022-10-31T05:16:09;19.20;99.90
29255;DHT22;16277;48.890;2.306;2022-10-31T05:31:26;19.30;99.90
29255;DHT22;16277;48.890;2.306;2022-10-31T05:46:31;19.20;99.90
29255;DHT22;16277;48.890;2.306;2022-10-31T06:01:45;19.20;99.90
29255;DHT22;16277;48.890;2.306;2022-10-31T06:17:05;19.30;99.90
29255;DHT22;16277;48.890;2.306;2022-10-31T06:32:39;19.20;99.90
29255;DHT22;16277;48.890;2.306;2022-10-31T06:47:50;19.30;99.90
29255;DHT22;16277;48.890;2.306;2022-10-31T07:03:27;19.30;99.90
29255;DHT22;16277;48.890;2.306;2022-10-31T07:18:33;19.40;99.90
29255;DHT22;16277;48.890;2.306;2022-10-31T07:33:38;19.30;99.90
29255;DHT22;16277;48.890;2.306;2022-10-31T07:49:02;19.40;99.90
29255;DHT22;16277;48.890;2.306;2022-10-31T08:04:15;19.40;99.90
29255;DHT22;16277;48.890;2.306;2022-10-31T08:19:38;19.30;99.90
29255;DHT22;16277;48.890;2.306;2022-10-31T08:34:46;19.40;99.90
29255;DHT22;16277;48.890;2.306;2022-10-31T08:50:11;19.50;99.90
29255;DHT22;16277;48.890;2.306;2022-10-31T09:05:15;19.50;99.90
29255;DHT22;16277;48.890;2.306;2022-10-31T09:20:20;19.40;99.90
29255;DHT22;16277;48.890;2.306;2022-10-31T09:35:26;19.50;99.90
29255;DHT22;16277;48.890;2.306;2022-10-31T09:50:37;19.70;99.90
29255;DHT22;16277;48.890;2.306;2022-10-31T10:06:13;20.10;99.90
29255;DHT22;16277;48.890;2.306;2022-10-31T10:21:42;20.30;99.90
29255;DHT22;16277;48.890;2.306;2022-10-31T10:36:57;20.90;99.90
29255;DHT22;16277;48.890;2.306;2022-10-31T10:52:19;20.60;99.90
29255;DHT22;16277;48.890;2.306;2022-10-31T11:07:46;20.90;99.90
29255;DHT22;16277;48.890;2.306;2022-10-31T11:23:02;21.50;99.90
29255;DHT22;16277;48.890;2.306;2022-10-31T11:38:06;21.70;99.90
29255;DHT22;16277;48.890;2.306;2022-10-31T11:53:15;21.90;99.90
29255;DHT22;16277;48.890;2.306;2022-10-31T12:08:20;22.00;99.90
29255;DHT22;16277;48.890;2.306;2022-10-31T12:23:33;22.10;99.90
29255;DHT22;16277;48.890;2.306;2022-10-31T12:39:06;22.20;99.90
29255;DHT22;16277;48.890;2.306;2022-10-31T13:09:42;22.60;99.90
29255;DHT22;16277;48.890;2.306;2022-10-31T13:24:53;22.50;99.90
29255;DHT22;16277;48.890;2.306;2022-10-31T13:40:13;22.60;99.90
29255;DHT22;16277;48.890;2.306;2022-10-31T13:55:35;22.60;99.90
29255;DHT22;16277;48.890;2.306;2022-10-31T14:10:47;22.50;99.90
29255;DHT22;16277;48.890;2.306;2022-10-31T14:25:52;22.70;99.90
29255;DHT22;16277;48.890;2.306;2022-10-31T14:41:14;23.00;99.90
29255;DHT22;16277;48.890;2.306;2022-10-31T14:56:29;22.90;99.90
29255;DHT22;16277;48.890;2.306;2022-10-31T15:11:37;22.70;99.90
29255;DHT22;16277;48.890;2.306;2022-10-31T15:27:00;22.50;99.90
29255;DHT22;16277;48.890;2.306;2022-10-31T15:42:18;22.40;99.90
29255;DHT22;16277;48.890;2.306;2022-10-31T15:57:24;22.20;99.90
29255;DHT22;16277;48.890;2.306;2022-10-31T16:12:33;22.10;99.90
29255;DHT22;16277;48.890;2.306;2022-10-31T16:27:39;22.00;99.90
29255;DHT22;16277;48.890;2.306;2022-10-31T16:42:44;22.00;99.90
29255;DHT22;16277;48.890;2.306;2022-10-31T16:57:52;21.90;99.90
29255;DHT22;16277;48.890;2.306;2022-10-31T17:12:58;21.80;99.90
29255;DHT22;16277;48.890;2.306;2022-10-31T17:28:05;21.70;99.90
29255;DHT22;16277;48.890;2.306;2022-10-31T17:43:10;21.50;99.90
29255;DHT22;16277;48.890;2.306;2022-10-31T17:58:15;21.20;99.90
29255;DHT22;16277;48.890;2.306;2022-10-31T18:13:19;20.80;99.90
29255;DHT22;16277;48.890;2.306;2022-10-31T18:28:24;20.90;99.90
29255;DHT22;16277;48.890;2.306;2022-10-31T18:43:28;20.90;99.90
29255;DHT22;16277;48.890;2.306;2022-10-31T18:58:33;20.70;99.90
29255;DHT22;16277;48.890;2.306;2022-10-31T19:13:38;20.70;99.90
29255;DHT22;16277;48.890;2.306;2022-10-31T19:28:42;20.70;99.90
29255;DHT22;16277;48.890;2.306;2022-10-31T19:43:47;20.60;99.90
29255;DHT22;16277;48.890;2.306;2022-10-31T19:58:52;20.30;99.90
29255;DHT22;16277;48.890;2.306;2022-10-31T20:13:57;20.50;99.90
29255;DHT22;16277;48.890;2.306;2022-10-31T20:29:02;20.50;99.90
29255;DHT22;16277;48.890;2.306;2022-10-31T20:44:07;20.40;99.90
29255;DHT22;16277;48.890;2.306;2022-10-31T20:59:11;20.50;99.90
29255;DHT22;16277;48.890;2.306;2022-10-31T21:14:17;20.50;99.90
29255;DHT22;16277;48.890;2.306;2022-10-31T21:29:21;20.40;99.90
29255;DHT22;16277;48.890;2.306;2022-10-31T21:44:26;19.90;99.90
29255;DHT22;16277;48.890;2.306;2022-10-31T21:59:30;20.00;99.90
29255;DHT22;16277;48.890;2.306;2022-10-31T22:14:35;19.50;99.90
29255;DHT22;16277;48.890;2.306;2022-10-31T22:29:39;19.50;99.90
29255;DHT22;16277;48.890;2.306;2022-10-31T22:44:43;19.60;99.90
29255;DHT22;16277;48.890;2.306;2022-10-31T22:59:48;19.60;99.90
29255;DHT22;16277;48.890;2.306;2022-10-31T23:14:53;19.60;99.90
29255;DHT22;16277;48.890;2.306;2022-10-31T23:29:58;19.60;99.90
29255;DHT22;16277;48.890;2.306;2022-10-31T23:45:03;18.90;99.90
